Time;durP1;ratioP1;P1;durP2;ratioP2;P2;SDS_P1;SDS_P2;PMS_P1;PMS_P2;Temp;Humidity;BMP_temperature;BMP_pressure;BME280_temperature;BME280_humidity;BME280_pressure;Samples;Min_cycle;Max_cycle;Signal;HPM_P1;HPM_P2
2022/12/19 00:01:25;;;;;;;27.25;16.10;;;;;;;;;;5007591;28;20580;-43
2022/12/19 00:03:55;;;;;;;33.67;16.10;;;;;;;;;;5005783;28;20707;-43
2022/12/19 00:06:21;;;;;;;43.45;16.45;;;;;;;;;;5004594;28;20712;-42
2022/12/19 00:08:48;;;;;;;137.00;102.75;;;;;;;;;;5000209;28;20173;-43
2022/12/19 00:11:14;;;;;;;35.42;16.80;;;;;;;;;;5001632;28;20197;-42
2022/12/19 00:13:41;;;;;;;1053.38;506.35;;;;;;;;;;5005767;28;20274;-42
2022/12/19 00:16:12;;;;;;;32.38;15.90;;;;;;;;;;5006226;28;20172;-42
2022/12/19 00:18:38;;;;;;;28.67;13.82;;;;;;;;;;5006503;28;20206;-43
2022/12/19 00:21:05;;;;;;;31.40;15.38;;;;;;;;;;5002657;28;20209;-43
2022/12/19 00:23:32;;;;;;;24.63;15.05;;;;;;;;;;5004341;28;20169;-43
2022/12/19 00:26:14;;;;;;;34.22;16.38;;;;;;;;;;4998374;28;20181;-43
2022/12/19 00:28:45;;;;;;;33.90;16.00;;;;;;;;;;5005309;28;20173;-42
2022/12/19 00:31:10;;;;;;;31.42;15.20;;;;;;;;;;5004739;28;20223;-43
2022/12/19 00:33:36;;;;;;;36.20;15.43;;;;;;;;;;5001335;28;20717;-42
2022/12/19 00:36:07;;;;;;;35.87;15.77;;;;;;;;;;5004490;28;20411;-42
2022/12/19 00:38:34;;;;;;;28.75;15.10;;;;;;;;;;5006747;28;20834;-43
2022/12/19 00:41:09;;;;;;;34.20;15.73;;;;;;;;;;5002359;28;20696;-43
2022/12/19 00:43:36;;;;;;;31.98;16.73;;;;;;;;;;5007170;28;20582;-43
2022/12/19 00:46:03;;;;;;;191.82;55.70;;;;;;;;;;5002269;28;20654;-43
2022/12/19 00:48:29;;;;;;;64.28;17.10;;;;;;;;;;5005138;28;20648;-42
2022/12/19 00:50:59;;;;;;;36.97;15.90;;;;;;;;;;4999759;28;20283;-43
2022/12/19 00:53:25;;;;;;;30.00;15.18;;;;;;;;;;4999690;28;20468;-43
2022/12/19 00:55:51;;;;;;;29.23;14.50;;;;;;;;;;5004713;28;20706;-43
2022/12/19 00:58:17;;;;;;;38.23;18.33;;;;;;;;;;5005065;28;20467;-43
2022/12/19 01:00:43;;;;;;;36.10;17.50;;;;;;;;;;5003058;28;20478;-42
2022/12/19 01:03:09;;;;;;;34.33;15.63;;;;;;;;;;5007244;28;20463;-43
2022/12/19 01:05:35;;;;;;;33.75;16.27;;;;;;;;;;4990374;28;20406;-42
2022/12/19 01:08:01;;;;;;;30.83;15.60;;;;;;;;;;5002644;28;20182;-43
2022/12/19 01:10:27;;;;;;;35.78;15.57;;;;;;;;;;4999617;28;20480;-43
2022/12/19 01:12:53;;;;;;;45.53;22.33;;;;;;;;;;5001357;28;20189;-43
2022/12/19 01:15:20;;;;;;;66.97;19.20;;;;;;;;;;5001133;28;20402;-43
2022/12/19 01:17:47;;;;;;;1999.90;999.90;;;;;;;;;;4999708;28;20850;-43
2022/12/19 01:20:14;;;;;;;32.83;17.42;;;;;;;;;;4999891;28;20197;-42
2022/12/19 01:22:40;;;;;;;33.13;15.48;;;;;;;;;;5000157;28;20212;-43
2022/12/19 01:25:06;;;;;;;1999.90;999.90;;;;;;;;;;5006239;28;20181;-42
2022/12/19 01:27:32;;;;;;;28.25;13.77;;;;;;;;;;5004123;28;20417;-42
2022/12/19 01:29:58;;;;;;;27.93;14.00;;;;;;;;;;5003701;28;20200;-42
2022/12/19 01:32:24;;;;;;;38.97;16.93;;;;;;;;;;5000701;28;20419;-42
2022/12/19 01:34:50;;;;;;;259.52;211.73;;;;;;;;;;5002021;28;20527;-42
2022/12/19 01:37:16;;;;;;;28.42;14.75;;;;;;;;;;5001742;28;20633;-43
2022/12/19 01:39:42;;;;;;;29.45;14.80;;;;;;;;;;5002107;28;20245;-42
2022/12/19 01:42:15;;;;;;;30.20;15.40;;;;;;;;;;5005887;28;20235;-43
2022/12/19 01:44:58;;;;;;;1084.90;545.60;;;;;;;;;;5001207;28;20433;-42
2022/12/19 01:47:24;;;;;;;27.23;15.00;;;;;;;;;;5001962;28;20207;-42
2022/12/19 01:49:50;;;;;;;1999.90;999.90;;;;;;;;;;4997057;28;20256;-43
2022/12/19 01:52:16;;;;;;;1359.43;668.70;;;;;;;;;;5004667;28;20181;-42
2022/12/19 01:54:42;;;;;;;201.50;103.80;;;;;;;;;;5002363;28;20501;-43
2022/12/19 01:57:10;;;;;;;31.65;16.40;;;;;;;;;;5003774;28;20411;-42
2022/12/19 01:59:38;;;;;;;1084.03;521.50;;;;;;;;;;5001721;28;20196;-43
2022/12/19 02:02:17;;;;;;;577.17;285.33;;;;;;;;;;5001110;28;20275;-43
2022/12/19 02:04:43;;;;;;;165.60;102.47;;;;;;;;;;5001643;28;20184;-42
2022/12/19 02:07:09;;;;;;;133.13;47.83;;;;;;;;;;5000784;28;20181;-43
2022/12/19 02:09:35;;;;;;;100.60;24.35;;;;;;;;;;5001373;28;20458;-43
2022/12/19 02:12:01;;;;;;;132.57;51.97;;;;;;;;;;4991767;28;20415;-42
2022/12/19 02:14:27;;;;;;;112.10;29.00;;;;;;;;;;4999652;28;20177;-42
2022/12/19 02:17:06;;;;;;;59.03;16.58;;;;;;;;;;5000821;28;20181;-42
2022/12/19 02:19:32;;;;;;;65.25;16.40;;;;;;;;;;5001682;28;20253;-42
2022/12/19 02:22:04;;;;;;;55.80;15.80;;;;;;;;;;5003542;28;20196;-42
2022/12/19 02:24:44;;;;;;;61.53;16.33;;;;;;;;;;5003634;28;20920;-43
2022/12/19 02:27:19;;;;;;;58.50;16.75;;;;;;;;;;4997798;28;20610;-42
2022/12/19 02:29:45;;;;;;;66.78;16.80;;;;;;;;;;5002803;28;20207;-42
2022/12/19 02:32:23;;;;;;;56.73;16.73;;;;;;;;;;4998271;28;20553;-42
2022/12/19 02:35:01;;;;;;;66.07;17.70;;;;;;;;;;5000938;28;20412;-43
2022/12/19 02:37:41;;;;;;;64.57;17.95;;;;;;;;;;5003973;28;20263;-43
2022/12/19 02:40:16;;;;;;;58.22;15.55;;;;;;;;;;4998435;28;20254;-43
2022/12/19 02:42:43;;;;;;;59.95;16.58;;;;;;;;;;4998014;28;20207;-42
2022/12/19 02:45:11;;;;;;;63.47;14.82;;;;;;;;;;5002233;28;20204;-42
2022/12/19 02:47:37;;;;;;;59.38;15.15;;;;;;;;;;5000365;28;20169;-43
2022/12/19 02:50:04;;;;;;;61.13;15.95;;;;;;;;;;5003375;28;20201;-42
2022/12/19 02:52:30;;;;;;;58.00;15.25;;;;;;;;;;5000309;28;20621;-43
2022/12/19 02:54:58;;;;;;;58.43;17.00;;;;;;;;;;5003805;28;20224;-43
2022/12/19 02:57:37;;;;;;;54.40;16.88;;;;;;;;;;5000993;28;20969;-42
2022/12/19 03:00:08;;;;;;;49.10;13.85;;;;;;;;;;4993198;28;20206;-43
2022/12/19 03:02:36;;;;;;;60.22;16.40;;;;;;;;;;5003551;28;20200;-43
2022/12/19 03:05:15;;;;;;;135.80;48.03;;;;;;;;;;4997474;28;20206;-43
2022/12/19 03:07:44;;;;;;;114.93;40.83;;;;;;;;;;4999381;28;20183;-42
2022/12/19 03:10:22;;;;;;;29.48;14.32;;;;;;;;;;5003178;28;20250;-43
2022/12/19 03:12:51;;;;;;;26.70;13.23;;;;;;;;;;5001701;28;20227;-42
2022/12/19 03:15:17;;;;;;;54.90;16.42;;;;;;;;;;5002773;28;20654;-42
2022/12/19 03:17:43;;;;;;;27.13;14.73;;;;;;;;;;5000830;28;20181;-42
2022/12/19 03:20:21;;;;;;;22.83;13.15;;;;;;;;;;5003802;28;20443;-43
2022/12/19 03:22:47;;;;;;;28.27;14.70;;;;;;;;;;5004360;28;20214;-43
2022/12/19 03:25:13;;;;;;;27.90;14.63;;;;;;;;;;4999743;28;20537;-42
2022/12/19 03:27:40;;;;;;;24.35;14.40;;;;;;;;;;4996382;28;20408;-43
2022/12/19 03:30:08;;;;;;;25.55;13.80;;;;;;;;;;5012391;28;20196;-43
2022/12/19 03:32:35;;;;;;;22.48;13.95;;;;;;;;;;5005278;28;20176;-42
2022/12/19 03:35:01;;;;;;;25.58;16.13;;;;;;;;;;5010224;28;20176;-43
2022/12/19 03:37:28;;;;;;;25.50;14.03;;;;;;;;;;5004470;28;20276;-43
2022/12/19 03:39:58;;;;;;;23.13;13.48;;;;;;;;;;5006217;28;20525;-43
2022/12/19 03:45:11;;;;;;;26.25;13.55;;;;;;;;;;4998633;28;20224;-43
2022/12/19 03:47:44;;;;;;;25.98;14.05;;;;;;;;;;5009297;28;20219;-42
2022/12/19 03:50:10;;;;;;;25.75;14.55;;;;;;;;;;5004278;28;20200;-43
2022/12/19 03:52:45;;;;;;;29.02;15.05;;;;;;;;;;5001433;28;20181;-42
2022/12/19 03:55:23;;;;;;;24.27;14.57;;;;;;;;;;5009082;28;20185;-42
2022/12/19 03:57:53;;;;;;;29.40;14.85;;;;;;;;;;5004756;28;20173;-42
2022/12/19 04:00:20;;;;;;;23.20;13.45;;;;;;;;;;5008156;28;20201;-42
2022/12/19 04:02:49;;;;;;;30.08;15.45;;;;;;;;;;4993295;28;20196;-43
2022/12/19 04:05:18;;;;;;;29.10;16.65;;;;;;;;;;5003192;28;20192;-43
2022/12/19 04:07:44;;;;;;;23.75;12.77;;;;;;;;;;5005746;28;20181;-43
2022/12/19 04:10:12;;;;;;;26.75;15.32;;;;;;;;;;5000703;28;20204;-43
2022/12/19 04:12:40;;;;;;;31.73;17.08;;;;;;;;;;5006139;28;20185;-43
2022/12/19 04:15:07;;;;;;;30.35;15.30;;;;;;;;;;4999283;28;20215;-43
2022/12/19 04:17:59;;;;;;;30.38;16.77;;;;;;;;;;5003008;28;20173;-43
2022/12/19 04:20:26;;;;;;;27.98;14.77;;;;;;;;;;4992896;28;20258;-42
2022/12/19 04:23:00;;;;;;;30.05;16.55;;;;;;;;;;5003819;28;20327;-42
2022/12/19 04:25:36;;;;;;;24.77;14.15;;;;;;;;;;5002386;28;20171;-42
2022/12/19 04:28:19;;;;;;;31.00;14.13;;;;;;;;;;5006136;28;20168;-43
2022/12/19 04:30:46;;;;;;;31.48;15.90;;;;;;;;;;5003504;28;20286;-42
2022/12/19 04:33:12;;;;;;;28.98;15.10;;;;;;;;;;5002532;28;20185;-43
2022/12/19 04:35:38;;;;;;;30.47;14.70;;;;;;;;;;5005476;28;20196;-42
2022/12/19 04:38:04;;;;;;;32.67;16.73;;;;;;;;;;4999449;28;20499;-42
2022/12/19 04:40:30;;;;;;;24.63;15.05;;;;;;;;;;5009423;28;20451;-43
2022/12/19 04:42:55;;;;;;;26.90;15.50;;;;;;;;;;5003898;28;20269;-43
2022/12/19 04:45:21;;;;;;;31.40;16.37;;;;;;;;;;5004464;28;20405;-42
2022/12/19 04:47:48;;;;;;;27.33;15.30;;;;;;;;;;5003888;28;20412;-43
2022/12/19 04:50:14;;;;;;;27.75;15.27;;;;;;;;;;5008736;28;20436;-43
2022/12/19 04:52:40;;;;;;;27.47;15.57;;;;;;;;;;5005064;28;20673;-43
2022/12/19 04:55:06;;;;;;;28.70;16.03;;;;;;;;;;5002241;28;20794;-42
2022/12/19 04:57:32;;;;;;;25.95;16.65;;;;;;;;;;5007871;28;20443;-42
2022/12/19 04:59:58;;;;;;;29.17;17.13;;;;;;;;;;5001951;28;20232;-42
2022/12/19 05:02:24;;;;;;;30.13;16.00;;;;;;;;;;5001763;28;20448;-43
2022/12/19 05:04:50;;;;;;;32.38;17.90;;;;;;;;;;5007951;28;20499;-43
2022/12/19 05:07:19;;;;;;;29.15;16.10;;;;;;;;;;5002016;28;20642;-43
2022/12/19 05:09:45;;;;;;;35.67;17.90;;;;;;;;;;5001863;28;20199;-42
2022/12/19 05:12:11;;;;;;;31.30;17.90;;;;;;;;;;5002074;28;20586;-43
2022/12/19 05:14:37;;;;;;;30.27;16.10;;;;;;;;;;5006466;28;20778;-43
2022/12/19 05:17:03;;;;;;;30.83;17.63;;;;;;;;;;4996528;28;20777;-42
2022/12/19 05:19:29;;;;;;;38.97;18.55;;;;;;;;;;5001864;28;20786;-42
2022/12/19 05:21:55;;;;;;;34.22;18.88;;;;;;;;;;5004531;28;20299;-42
2022/12/19 05:24:21;;;;;;;28.65;17.85;;;;;;;;;;5005138;28;20173;-43
2022/12/19 05:26:48;;;;;;;29.75;17.65;;;;;;;;;;5001887;28;20206;-42
2022/12/19 05:29:14;;;;;;;35.72;19.20;;;;;;;;;;5008923;28;20208;-43
2022/12/19 05:31:40;;;;;;;26.88;14.90;;;;;;;;;;5004167;28;20336;-43
2022/12/19 05:34:06;;;;;;;35.40;17.77;;;;;;;;;;4999045;28;20693;-42
2022/12/19 05:36:32;;;;;;;35.80;17.50;;;;;;;;;;5010022;28;20935;-43
2022/12/19 05:38:58;;;;;;;29.63;15.40;;;;;;;;;;5003290;28;20177;-43
2022/12/19 05:41:24;;;;;;;34.03;17.93;;;;;;;;;;5012665;23;20488;-42
2022/12/19 05:43:55;;;;;;;30.80;17.33;;;;;;;;;;4981881;28;20425;-42
2022/12/19 05:46:21;;;;;;;28.75;16.92;;;;;;;;;;4981613;28;20420;-41
2022/12/19 05:48:47;;;;;;;30.92;17.70;;;;;;;;;;4983464;28;20222;-42
2022/12/19 05:51:13;;;;;;;29.83;16.77;;;;;;;;;;4980976;28;20342;-42
2022/12/19 05:53:39;;;;;;;33.53;16.57;;;;;;;;;;4988029;28;20401;-42
2022/12/19 05:56:10;;;;;;;32.17;17.00;;;;;;;;;;4982152;28;20407;-41
2022/12/19 05:58:36;;;;;;;34.85;19.90;;;;;;;;;;4980159;28;20176;-43
2022/12/19 06:01:07;;;;;;;28.98;17.20;;;;;;;;;;4974837;28;20557;-41
2022/12/19 06:03:33;;;;;;;31.20;17.05;;;;;;;;;;4981728;28;20215;-43
2022/12/19 06:06:06;;;;;;;30.33;16.27;;;;;;;;;;4970760;28;20547;-42
2022/12/19 06:08:32;;;;;;;25.00;15.45;;;;;;;;;;4983790;28;20463;-43
2022/12/19 06:10:59;;;;;;;29.20;15.38;;;;;;;;;;4979680;28;20200;-41
2022/12/19 06:13:25;;;;;;;29.23;16.35;;;;;;;;;;4983219;28;20173;-41
2022/12/19 06:15:56;;;;;;;22.35;15.52;;;;;;;;;;4970359;28;20236;-41
2022/12/19 06:18:22;;;;;;;32.90;17.27;;;;;;;;;;4978595;28;20180;-43
2022/12/19 06:20:57;;;;;;;28.07;15.33;;;;;;;;;;4977261;28;20273;-42
2022/12/19 06:23:23;;;;;;;28.73;16.73;;;;;;;;;;4983049;28;20782;-42
2022/12/19 06:25:49;;;;;;;27.00;15.38;;;;;;;;;;4977633;28;20173;-43
2022/12/19 06:28:15;;;;;;;26.87;16.00;;;;;;;;;;4981366;28;20257;-41
2022/12/19 06:30:41;;;;;;;29.63;16.20;;;;;;;;;;4977602;28;20514;-43
2022/12/19 06:33:07;;;;;;;27.40;15.30;;;;;;;;;;4978011;28;20504;-43
2022/12/19 06:35:34;;;;;;;32.40;15.90;;;;;;;;;;4983065;28;20969;-43
2022/12/19 06:38:00;;;;;;;27.75;16.40;;;;;;;;;;4981202;28;20932;-44
2022/12/19 06:43:11;;;;;;;36.97;16.92;;;;;;;;;;4974646;28;20256;-43
2022/12/19 06:45:37;;;;;;;28.73;16.52;;;;;;;;;;4971809;28;20180;-43
2022/12/19 06:48:03;;;;;;;32.33;17.73;;;;;;;;;;4980960;28;20253;-43
2022/12/19 06:50:29;;;;;;;28.05;15.10;;;;;;;;;;4979458;28;20428;-42
2022/12/19 06:52:55;;;;;;;26.00;16.93;;;;;;;;;;4981421;28;20536;-43
2022/12/19 06:55:21;;;;;;;25.87;16.00;;;;;;;;;;4978287;28;20779;-43
2022/12/19 06:57:47;;;;;;;34.60;18.00;;;;;;;;;;4977990;28;20511;-44
2022/12/19 07:00:13;;;;;;;23.07;14.90;;;;;;;;;;4975572;28;20447;-42
2022/12/19 07:02:42;;;;;;;31.48;16.80;;;;;;;;;;4981061;28;20551;-43
2022/12/19 07:05:09;;;;;;;28.10;16.95;;;;;;;;;;4976197;28;20166;-42
2022/12/19 07:07:35;;;;;;;24.60;15.30;;;;;;;;;;4980664;28;20558;-43
2022/12/19 07:10:00;;;;;;;30.10;17.13;;;;;;;;;;4977523;28;20200;-43
2022/12/19 07:12:26;;;;;;;23.67;15.13;;;;;;;;;;4981656;28;20823;-43
2022/12/19 07:14:54;;;;;;;27.60;15.10;;;;;;;;;;4971157;28;20422;-43
2022/12/19 07:17:21;;;;;;;30.95;17.45;;;;;;;;;;4976269;28;20487;-43
2022/12/19 07:19:49;;;;;;;31.10;15.93;;;;;;;;;;4978158;28;20548;-44
2022/12/19 07:22:15;;;;;;;32.13;17.40;;;;;;;;;;4981959;28;20193;-43
2022/12/19 07:24:41;;;;;;;34.53;17.60;;;;;;;;;;4979035;28;20221;-44
2022/12/19 07:27:07;;;;;;;26.30;15.70;;;;;;;;;;4981594;28;20178;-42
2022/12/19 07:29:33;;;;;;;25.38;16.08;;;;;;;;;;4967170;28;20501;-43
2022/12/19 07:31:59;;;;;;;34.90;17.93;;;;;;;;;;4976196;28;20582;-43
2022/12/19 07:34:25;;;;;;;29.87;16.23;;;;;;;;;;4978893;28;20753;-43
2022/12/19 07:36:51;;;;;;;28.40;15.60;;;;;;;;;;4982506;28;20870;-45
2022/12/19 07:39:17;;;;;;;31.00;16.80;;;;;;;;;;4979059;28;20475;-43
2022/12/19 07:41:43;;;;;;;29.08;17.65;;;;;;;;;;4984946;28;20525;-43
2022/12/19 07:44:12;;;;;;;29.50;17.33;;;;;;;;;;4980461;28;20558;-45
2022/12/19 07:46:38;;;;;;;27.05;16.08;;;;;;;;;;4975496;28;20673;-43
2022/12/19 07:49:04;;;;;;;31.10;17.17;;;;;;;;;;4987704;28;20265;-44
2022/12/19 07:51:30;;;;;;;31.58;17.77;;;;;;;;;;4979233;28;20432;-44
2022/12/19 07:53:56;;;;;;;28.77;18.13;;;;;;;;;;4982997;28;20228;-43
2022/12/19 07:56:22;;;;;;;31.53;18.57;;;;;;;;;;4982519;28;20264;-44
2022/12/19 07:58:48;;;;;;;36.20;18.77;;;;;;;;;;4984783;28;20423;-43
2022/12/19 08:01:14;;;;;;;34.17;18.27;;;;;;;;;;4979875;28;20436;-45
2022/12/19 08:03:40;;;;;;;32.28;17.10;;;;;;;;;;4977207;28;20410;-45
2022/12/19 08:06:07;;;;;;;24.50;16.43;;;;;;;;;;4978439;28;20530;-44
2022/12/19 08:08:35;;;;;;;28.70;16.27;;;;;;;;;;4980332;28;20409;-44
2022/12/19 08:11:08;;;;;;;25.15;14.73;;;;;;;;;;4967783;28;20654;-43
2022/12/19 08:13:35;;;;;;;26.65;13.57;;;;;;;;;;4971271;28;20551;-44
2022/12/19 08:16:01;;;;;;;25.88;16.80;;;;;;;;;;4972973;28;20241;-44
2022/12/19 08:18:29;;;;;;;32.15;17.80;;;;;;;;;;4980256;28;20177;-44
2022/12/19 08:20:55;;;;;;;28.10;16.17;;;;;;;;;;4974220;28;20198;-43
2022/12/19 08:23:22;;;;;;;32.90;17.17;;;;;;;;;;4991002;28;20212;-44
2022/12/19 08:26:05;;;;;;;30.40;16.88;;;;;;;;;;4979637;28;20541;-44
2022/12/19 08:28:35;;;;;;;30.70;17.33;;;;;;;;;;4993761;28;20181;-44
2022/12/19 08:31:09;;;;;;;28.13;17.90;;;;;;;;;;4981891;28;20193;-43
2022/12/19 08:33:35;;;;;;;28.52;16.35;;;;;;;;;;4970728;28;20177;-45
2022/12/19 08:36:05;;;;;;;30.73;17.30;;;;;;;;;;4971281;28;20206;-43
2022/12/19 08:38:31;;;;;;;29.30;15.75;;;;;;;;;;4988273;28;20173;-44
2022/12/19 08:40:57;;;;;;;27.37;16.50;;;;;;;;;;4979469;28;20578;-44
2022/12/19 08:43:24;;;;;;;26.70;16.42;;;;;;;;;;4986302;28;20523;-44
2022/12/19 08:45:50;;;;;;;24.80;16.63;;;;;;;;;;4979166;28;20716;-43
2022/12/19 08:48:17;;;;;;;28.90;17.17;;;;;;;;;;4981385;28;20204;-43
2022/12/19 08:50:52;;;;;;;29.00;15.95;;;;;;;;;;4978959;28;20213;-43
2022/12/19 08:53:18;;;;;;;25.00;15.38;;;;;;;;;;4985810;28;20712;-43
2022/12/19 08:55:44;;;;;;;31.17;15.80;;;;;;;;;;4984008;28;20257;-43
2022/12/19 08:58:10;;;;;;;25.42;15.30;;;;;;;;;;4985157;28;20182;-42
2022/12/19 09:00:36;;;;;;;29.92;15.98;;;;;;;;;;4984511;28;20193;-44
2022/12/19 09:03:03;;;;;;;30.00;15.60;;;;;;;;;;4984545;28;20199;-44
2022/12/19 09:05:28;;;;;;;29.02;15.57;;;;;;;;;;4978410;28;20176;-44
2022/12/19 09:07:54;;;;;;;26.90;16.10;;;;;;;;;;4981643;28;20208;-44
2022/12/19 09:10:20;;;;;;;27.10;16.30;;;;;;;;;;4982586;28;20528;-44
2022/12/19 09:12:46;;;;;;;29.40;15.87;;;;;;;;;;4987816;28;20420;-44
2022/12/19 09:15:12;;;;;;;24.90;15.33;;;;;;;;;;4981457;28;20420;-44
2022/12/19 09:17:38;;;;;;;23.55;14.75;;;;;;;;;;4976448;28;20505;-44
2022/12/19 09:20:05;;;;;;;30.73;16.37;;;;;;;;;;4980935;28;20219;-43
2022/12/19 09:22:31;;;;;;;25.50;14.30;;;;;;;;;;4978374;28;20449;-43
2022/12/19 09:24:56;;;;;;;25.37;14.07;;;;;;;;;;4982385;28;20402;-44
2022/12/19 09:27:23;;;;;;;27.00;15.97;;;;;;;;;;4981093;28;20409;-44
2022/12/19 09:29:49;;;;;;;32.40;16.08;;;;;;;;;;4985935;28;20416;-43
2022/12/19 09:32:15;;;;;;;26.00;17.33;;;;;;;;;;4981466;28;20176;-43
2022/12/19 09:34:41;;;;;;;22.17;13.60;;;;;;;;;;4977815;28;20414;-43
2022/12/19 09:37:08;;;;;;;28.43;14.70;;;;;;;;;;4978352;28;20420;-44
2022/12/19 09:39:34;;;;;;;26.10;14.93;;;;;;;;;;4982960;28;20413;-44
2022/12/19 09:42:16;;;;;;;21.70;12.93;;;;;;;;;;4977314;28;20461;-43
2022/12/19 09:44:50;;;;;;;19.00;12.35;;;;;;;;;;4982929;28;20401;-43
2022/12/19 09:47:17;;;;;;;23.87;14.07;;;;;;;;;;4978905;28;20182;-44
2022/12/19 09:49:44;;;;;;;23.53;14.30;;;;;;;;;;4982283;28;20420;-44
2022/12/19 09:52:13;;;;;;;21.80;14.93;;;;;;;;;;4982039;28;20806;-43
2022/12/19 09:54:50;;;;;;;23.43;12.80;;;;;;;;;;4987094;28;20457;-44
2022/12/19 09:57:22;;;;;;;19.20;11.77;;;;;;;;;;4980388;28;20413;-44
2022/12/19 09:59:54;;;;;;;26.37;13.63;;;;;;;;;;4978992;28;20413;-44
2022/12/19 10:02:38;;;;;;;19.13;12.47;;;;;;;;;;4982772;28;20591;-43
2022/12/19 10:05:04;;;;;;;23.03;13.10;;;;;;;;;;4977671;28;20414;-43
2022/12/19 10:07:31;;;;;;;26.43;13.20;;;;;;;;;;4979756;28;20413;-43
2022/12/19 10:09:57;;;;;;;25.80;12.70;;;;;;;;;;4981506;28;20922;-43
2022/12/19 10:12:23;;;;;;;23.53;12.20;;;;;;;;;;4978085;28;20421;-43
2022/12/19 10:15:24;;;;;;;18.00;12.97;;;;;;;;;;4982693;28;20898;-44
2022/12/19 10:18:09;;;;;;;20.90;12.17;;;;;;;;;;4954331;28;20489;-43
2022/12/19 10:20:41;;;;;;;21.00;13.87;;;;;;;;;;4980434;28;20502;-43
2022/12/19 10:23:26;;;;;;;20.67;12.63;;;;;;;;;;4989896;28;20555;-43
2022/12/19 10:26:10;;;;;;;21.40;13.25;;;;;;;;;;4982733;28;20410;-43
2022/12/19 10:28:50;;;;;;;20.53;12.20;;;;;;;;;;4984394;28;20175;-43
2022/12/19 10:31:17;;;;;;;18.00;12.10;;;;;;;;;;4978496;28;20471;-43
2022/12/19 10:33:47;;;;;;;19.57;13.50;;;;;;;;;;4983774;28;20450;-43
2022/12/19 10:36:14;;;;;;;17.07;10.80;;;;;;;;;;4977726;28;20444;-44
2022/12/19 10:38:47;;;;;;;17.17;11.53;;;;;;;;;;4985253;28;20424;-43
2022/12/19 10:41:23;;;;;;;21.17;12.03;;;;;;;;;;4976828;28;20480;-43
2022/12/19 10:43:58;;;;;;;21.30;11.90;;;;;;;;;;4978109;28;20415;-44
2022/12/19 10:46:37;;;;;;;19.03;11.67;;;;;;;;;;4958896;28;20406;-43
2022/12/19 10:49:10;;;;;;;18.30;10.80;;;;;;;;;;4953190;29;20418;-43
2022/12/19 10:51:36;;;;;;;22.53;14.27;;;;;;;;;;4962447;28;20497;-43
2022/12/19 10:54:02;;;;;;;21.03;12.30;;;;;;;;;;4968965;28;20434;-43
2022/12/19 10:56:30;;;;;;;22.40;12.47;;;;;;;;;;4972382;28;20976;-43
2022/12/19 10:58:57;;;;;;;18.60;11.63;;;;;;;;;;4972309;28;20493;-44
2022/12/19 11:01:33;;;;;;;17.00;10.60;;;;;;;;;;4966989;28;20962;-43
2022/12/19 11:04:11;;;;;;;20.37;13.10;;;;;;;;;;4957625;28;20429;-43
2022/12/19 11:06:37;;;;;;;21.50;12.67;;;;;;;;;;4972067;28;20928;-43
2022/12/19 11:09:19;;;;;;;23.23;12.90;;;;;;;;;;4972421;28;20413;-43
2022/12/19 11:11:47;;;;;;;20.57;14.10;;;;;;;;;;4965297;28;20862;-43
2022/12/19 11:14:25;;;;;;;22.10;13.50;;;;;;;;;;4971174;28;20830;-43
2022/12/19 11:16:51;;;;;;;17.60;11.03;;;;;;;;;;4971784;28;20523;-43
2022/12/19 11:19:21;;;;;;;19.27;13.27;;;;;;;;;;4972367;28;20903;-43
2022/12/19 11:21:47;;;;;;;24.10;13.20;;;;;;;;;;4965049;28;20818;-43
2022/12/19 11:24:20;;;;;;;19.60;13.07;;;;;;;;;;4971574;28;20498;-43
2022/12/19 11:26:48;;;;;;;17.80;12.67;;;;;;;;;;4972107;28;20416;-43
2022/12/19 11:29:20;;;;;;;20.23;12.47;;;;;;;;;;4966142;28;20414;-43
2022/12/19 11:31:46;;;;;;;20.23;12.63;;;;;;;;;;4955631;28;20481;-43
2022/12/19 11:34:17;;;;;;;24.60;11.63;;;;;;;;;;4972631;28;20407;-43
2022/12/19 11:36:47;;;;;;;20.90;13.13;;;;;;;;;;4966353;28;20411;-43
2022/12/19 11:39:19;;;;;;;20.83;12.37;;;;;;;;;;4972099;28;20419;-43
2022/12/19 11:41:48;;;;;;;21.60;11.40;;;;;;;;;;4972567;28;20979;-43
2022/12/19 11:44:34;;;;;;;20.10;11.93;;;;;;;;;;4972367;28;20762;-43
2022/12/19 11:47:11;;;;;;;21.80;11.60;;;;;;;;;;4964436;28;20426;-43
2022/12/19 11:49:40;;;;;;;15.43;10.60;;;;;;;;;;4967274;28;20497;-43
2022/12/19 11:52:06;;;;;;;17.63;10.80;;;;;;;;;;4975727;28;20410;-43
2022/12/19 11:54:51;;;;;;;20.00;12.43;;;;;;;;;;4976039;28;20832;-43
2022/12/19 11:57:17;;;;;;;20.40;11.47;;;;;;;;;;4972417;28;20465;-43
2022/12/19 11:59:42;;;;;;;16.53;10.60;;;;;;;;;;4975765;28;20453;-43
2022/12/19 12:02:20;;;;;;;17.50;10.67;;;;;;;;;;4975066;28;20463;-43
2022/12/19 12:04:46;;;;;;;14.37;10.63;;;;;;;;;;4975661;28;20410;-43
2022/12/19 12:07:14;;;;;;;17.33;10.43;;;;;;;;;;4967191;28;20419;-43
2022/12/19 12:10:00;;;;;;;15.63;10.27;;;;;;;;;;4971909;28;20418;-43
2022/12/19 12:12:32;;;;;;;10.90;8.97;;;;;;;;;;4975446;28;20431;-43
2022/12/19 12:15:07;;;;;;;19.07;9.83;;;;;;;;;;4975551;28;20471;-44
2022/12/19 12:17:38;;;;;;;17.03;10.20;;;;;;;;;;4964706;28;20428;-43
2022/12/19 12:20:07;;;;;;;18.43;9.77;;;;;;;;;;4965342;28;20434;-44
2022/12/19 12:22:48;;;;;;;19.70;10.37;;;;;;;;;;4976335;28;20542;-43
2022/12/19 12:25:17;;;;;;;16.27;10.93;;;;;;;;;;4989111;28;20425;-43
2022/12/19 12:27:46;;;;;;;13.80;9.60;;;;;;;;;;4966856;28;20475;-43
2022/12/19 12:30:16;;;;;;;15.40;10.13;;;;;;;;;;4975375;28;21025;-43
2022/12/19 12:33:03;;;;;;;18.27;10.80;;;;;;;;;;4975223;28;20792;-43
2022/12/19 12:35:35;;;;;;;15.50;9.77;;;;;;;;;;4956123;28;20924;-42
2022/12/19 12:38:07;;;;;;;16.57;9.53;;;;;;;;;;4960687;28;20413;-43
2022/12/19 12:40:45;;;;;;;15.70;9.30;;;;;;;;;;4971855;28;20456;-43
2022/12/19 12:43:25;;;;;;;15.40;10.03;;;;;;;;;;4974873;28;20466;-42
2022/12/19 12:45:51;;;;;;;12.27;8.67;;;;;;;;;;4975049;28;20466;-43
2022/12/19 12:48:31;;;;;;;11.67;8.57;;;;;;;;;;4971134;28;20885;-43
2022/12/19 12:50:58;;;;;;;16.63;8.97;;;;;;;;;;4975110;28;20440;-42
2022/12/19 12:53:26;;;;;;;13.57;8.33;;;;;;;;;;4975035;28;20482;-41
2022/12/19 12:55:54;;;;;;;13.00;8.20;;;;;;;;;;4974957;28;20417;-42
2022/12/19 12:58:39;;;;;;;13.73;9.87;;;;;;;;;;4961883;28;20423;-42
2022/12/19 13:01:11;;;;;;;12.83;8.80;;;;;;;;;;4973013;28;20487;-43
2022/12/19 13:03:39;;;;;;;17.70;9.40;;;;;;;;;;4972202;28;20473;-42
2022/12/19 13:06:07;;;;;;;12.00;8.07;;;;;;;;;;4974748;28;20424;-42
2022/12/19 13:08:44;;;;;;;14.40;9.17;;;;;;;;;;4957654;28;20433;-43
2022/12/19 13:14:33;;;;;;;14.40;9.47;;;;;;;;;;4974760;28;20396;-42
2022/12/19 13:17:23;;;;;;;10.27;8.60;;;;;;;;;;4971643;28;20410;-44
2022/12/19 13:19:57;;;;;;;10.00;8.17;;;;;;;;;;4971633;28;20771;-42
2022/12/19 13:22:28;;;;;;;12.70;8.20;;;;;;;;;;4974614;28;20468;-43
2022/12/19 13:24:56;;;;;;;15.70;8.23;;;;;;;;;;4967808;28;20456;-43
2022/12/19 13:27:22;;;;;;;14.13;9.03;;;;;;;;;;4968959;28;20417;-43
2022/12/19 13:30:03;;;;;;;13.70;8.23;;;;;;;;;;4961994;28;20952;-42
2022/12/19 13:32:32;;;;;;;9.53;6.33;;;;;;;;;;4974230;28;20825;-43
2022/12/19 13:34:59;;;;;;;13.37;8.00;;;;;;;;;;4968069;28;20438;-43
2022/12/19 13:37:29;;;;;;;12.93;9.17;;;;;;;;;;4972266;28;20954;-43
2022/12/19 13:45:23;;;;;;;11.67;8.00;;;;;;;;;;4992996;28;20435;-43
2022/12/19 13:47:50;;;;;;;11.97;8.20;;;;;;;;;;4993834;28;20435;-43
2022/12/19 13:50:21;;;;;;;11.60;7.83;;;;;;;;;;4993837;28;20432;-43
2022/12/19 13:52:51;;;;;;;12.60;8.17;;;;;;;;;;5004372;28;20435;-43
2022/12/19 13:55:17;;;;;;;11.27;7.30;;;;;;;;;;4998773;28;20438;-43
2022/12/19 13:57:43;;;;;;;14.93;8.13;;;;;;;;;;5004577;28;20422;-44
2022/12/19 14:00:17;;;;;;;9.97;7.20;;;;;;;;;;5002569;28;20502;-45
2022/12/19 14:02:48;;;;;;;9.10;7.40;;;;;;;;;;5004423;28;20524;-43
2022/12/19 14:05:19;;;;;;;9.17;7.00;;;;;;;;;;4999429;28;20431;-43
2022/12/19 14:07:45;;;;;;;11.80;8.00;;;;;;;;;;4990716;28;20934;-44
2022/12/19 14:10:16;;;;;;;12.47;7.70;;;;;;;;;;5003683;28;20477;-43
2022/12/19 14:15:35;;;;;;;11.40;7.03;;;;;;;;;;5007160;28;20421;-45
2022/12/19 14:18:02;;;;;;;14.27;7.77;;;;;;;;;;5005908;28;20421;-44
2022/12/19 14:20:30;;;;;;;8.47;6.63;;;;;;;;;;5004948;28;20405;-42
2022/12/19 14:23:00;;;;;;;8.10;7.30;;;;;;;;;;4999977;28;20542;-45
2022/12/19 14:25:31;;;;;;;14.10;7.73;;;;;;;;;;5004260;28;20411;-44
2022/12/19 14:28:01;;;;;;;10.83;7.40;;;;;;;;;;5004382;28;20428;-43
2022/12/19 14:30:29;;;;;;;10.20;6.43;;;;;;;;;;5003829;28;20406;-43
2022/12/19 14:32:56;;;;;;;9.87;7.50;;;;;;;;;;5003064;28;20441;-44
2022/12/19 14:35:23;;;;;;;9.60;7.40;;;;;;;;;;5004813;28;20417;-45
2022/12/19 14:37:57;;;;;;;12.37;7.60;;;;;;;;;;5001576;28;20541;-44
2022/12/19 14:40:28;;;;;;;9.33;6.33;;;;;;;;;;5002666;28;20448;-44
2022/12/19 14:45:44;;;;;;;11.40;7.10;;;;;;;;;;4995562;28;20436;-46
2022/12/19 14:48:29;;;;;;;9.77;6.93;;;;;;;;;;4997913;28;20934;-45
2022/12/19 14:51:07;;;;;;;14.10;7.23;;;;;;;;;;4999153;28;20537;-43